createdAt,value
2023-03-11T00:00:41.871Z,932.46
2023-03-11T00:01:41.882Z,932.46
2023-03-11T00:02:41.831Z,932.56
2023-03-11T00:03:41.832Z,932.58
2023-03-11T00:04:41.793Z,932.63
2023-03-11T00:05:41.893Z,932.69
2023-03-11T00:06:41.752Z,932.58
2023-03-11T00:07:41.736Z,932.71
2023-03-11T00:08:41.713Z,932.79
2023-03-11T00:09:41.694Z,932.91
2023-03-11T00:10:41.672Z,932.87
2023-03-11T00:11:41.656Z,932.87
2023-03-11T00:12:41.641Z,932.9
2023-03-11T00:13:41.636Z,932.94
2023-03-11T00:14:41.605Z,932.96
2023-03-11T00:15:41.574Z,932.89
2023-03-11T00:16:41.590Z,932.89
2023-03-11T00:17:41.550Z,933.12
2023-03-11T00:18:41.523Z,933.09
2023-03-11T00:19:41.498Z,933.13
2023-03-11T00:20:41.476Z,933.05
2023-03-11T00:21:41.456Z,933.14
2023-03-11T00:22:41.439Z,933.12
2023-03-11T00:23:41.418Z,933.15
2023-03-11T00:24:41.395Z,933.14
2023-03-11T00:25:41.378Z,933.2
2023-03-11T00:26:41.366Z,933.22
2023-03-11T00:27:41.337Z,933.18
2023-03-11T00:28:41.315Z,933.28
2023-03-11T00:29:41.319Z,933.22
2023-03-11T00:30:41.288Z,933.19
2023-03-11T00:31:41.254Z,933.31
2023-03-11T00:32:41.326Z,933.31
2023-03-11T00:33:41.224Z,933.33
2023-03-11T00:34:41.194Z,933.42
2023-03-11T00:35:41.295Z,933.33
2023-03-11T00:36:41.153Z,933.34
2023-03-11T00:37:41.143Z,933.37
2023-03-11T00:38:41.198Z,933.41
2023-03-11T00:39:41.094Z,933.4
2023-03-11T00:40:41.081Z,933.43
2023-03-11T00:41:41.057Z,933.46
2023-03-11T00:42:41.036Z,933.49
2023-03-11T00:43:41.037Z,933.47
2023-03-11T00:44:41.973Z,933.5
2023-03-11T00:45:41.983Z,933.59
2023-03-11T00:46:41.934Z,933.61
2023-03-11T00:47:41.933Z,933.62
2023-03-11T00:48:41.898Z,933.56
2023-03-11T00:49:41.876Z,933.69
2023-03-11T00:50:41.870Z,933.52
2023-03-11T00:51:41.875Z,933.63
2023-03-11T00:52:41.811Z,933.69
2023-03-11T00:53:41.804Z,933.66
2023-03-11T00:54:41.774Z,933.63
2023-03-11T00:55:41.770Z,933.76
2023-03-11T00:56:41.741Z,933.82
2023-03-11T00:57:41.715Z,933.82
2023-03-11T00:58:41.692Z,933.81
2023-03-11T00:59:41.672Z,933.72
2023-03-11T01:00:41.650Z,933.81
2023-03-11T01:01:41.726Z,933.88
2023-03-11T01:02:41.609Z,933.86
2023-03-11T01:03:41.594Z,933.94
2023-03-11T01:04:41.621Z,933.92
2023-03-11T01:05:41.561Z,933.92
2023-03-11T01:06:45.471Z,933.81
2023-03-11T01:07:41.517Z,933.99
2023-03-11T01:08:41.486Z,933.86
2023-03-11T01:09:41.470Z,933.88
2023-03-11T01:10:41.450Z,933.98
2023-03-11T01:11:41.426Z,934.02
2023-03-11T01:12:41.407Z,933.91
2023-03-11T01:13:41.399Z,934.08
2023-03-11T01:14:41.366Z,933.99
2023-03-11T01:15:41.394Z,933.97
2023-03-11T01:16:41.328Z,934.06
2023-03-11T01:17:41.335Z,934.06
2023-03-11T01:18:41.286Z,934.02
2023-03-11T01:19:41.263Z,934.17
2023-03-11T01:20:41.245Z,934.16
2023-03-11T01:21:41.226Z,934.24
2023-03-11T01:22:41.210Z,934.2
2023-03-11T01:23:41.182Z,934.12
2023-03-11T01:24:41.163Z,934.08
2023-03-11T01:25:41.150Z,934.15
2023-03-11T01:26:41.122Z,934.19
2023-03-11T01:27:41.101Z,934.23
2023-03-11T01:28:41.081Z,934.25
2023-03-11T01:29:41.062Z,934.29
2023-03-11T01:30:41.043Z,934.26
2023-03-11T01:31:41.022Z,934.38
2023-03-11T01:32:41.019Z,934.26
2023-03-11T01:33:41.007Z,934.46
2023-03-11T01:34:40.960Z,934.35
2023-03-11T01:35:40.940Z,934.49
2023-03-11T01:36:40.924Z,934.5
2023-03-11T01:37:40.894Z,934.39
2023-03-11T01:38:40.875Z,934.53
2023-03-11T01:39:40.856Z,934.66
2023-03-11T01:40:40.837Z,934.52
2023-03-11T01:41:40.823Z,934.68
2023-03-11T01:42:40.790Z,934.56
2023-03-11T01:43:40.785Z,934.71
2023-03-11T01:44:40.751Z,934.73
2023-03-11T01:45:40.731Z,934.7
2023-03-11T01:46:40.742Z,934.71
2023-03-11T01:47:40.693Z,934.82
2023-03-11T01:48:40.669Z,934.76
2023-03-11T01:49:40.671Z,934.82
2023-03-11T01:50:40.628Z,934.75
2023-03-11T01:51:40.607Z,934.81
2023-03-11T01:52:40.586Z,934.85
2023-03-11T01:53:40.565Z,934.94
2023-03-11T01:54:40.543Z,934.87
2023-03-11T01:55:40.522Z,934.8
2023-03-11T01:56:40.506Z,934.94
2023-03-11T01:57:40.480Z,934.94
2023-03-11T01:58:40.462Z,934.95
2023-03-11T01:59:40.440Z,934.91
2023-03-11T02:00:40.430Z,935.19
2023-03-11T02:01:40.416Z,935.13
2023-03-11T02:02:40.528Z,934.91
2023-03-11T02:03:40.356Z,935.18
2023-03-11T02:04:40.341Z,935.13
2023-03-11T02:05:40.344Z,935.19
2023-03-11T02:06:40.297Z,935.17
2023-03-11T02:07:40.274Z,935.19
2023-03-11T02:08:40.271Z,935.24
2023-03-11T02:09:40.238Z,935.19
2023-03-11T02:10:40.213Z,935.23
2023-03-11T02:11:40.193Z,935.22
2023-03-11T02:12:40.174Z,935.16
2023-03-11T02:13:40.160Z,935.27
2023-03-11T02:14:40.134Z,935.23
2023-03-11T02:15:40.308Z,935.31
2023-03-11T02:16:40.094Z,935.42
2023-03-11T02:17:40.086Z,935.39
2023-03-11T02:18:40.056Z,935.53
2023-03-11T02:19:40.038Z,935.51
2023-03-11T02:20:40.012Z,935.49
2023-03-11T02:21:40.041Z,935.56
2023-03-11T02:22:39.970Z,935.61
2023-03-11T02:23:39.953Z,935.66
2023-03-11T02:24:39.930Z,935.68
2023-03-11T02:25:39.911Z,935.64
2023-03-11T02:26:39.894Z,935.72
2023-03-11T02:27:39.872Z,935.66
2023-03-11T02:28:39.857Z,935.7
2023-03-11T02:29:39.831Z,935.75
2023-03-11T02:30:39.809Z,935.7
2023-03-11T02:31:41.769Z,935.72
2023-03-11T02:32:39.809Z,935.82
2023-03-11T02:33:39.747Z,935.81
2023-03-11T02:34:39.754Z,935.99
2023-03-11T02:35:39.742Z,935.81
2023-03-11T02:36:39.685Z,935.9
2023-03-11T02:37:39.691Z,935.83
2023-03-11T02:38:39.641Z,935.92
2023-03-11T02:39:39.633Z,935.93
2023-03-11T02:40:39.601Z,935.94
2023-03-11T02:41:39.583Z,935.99
2023-03-11T02:42:39.559Z,936.07
2023-03-11T02:43:39.539Z,936.01
2023-03-11T02:44:39.520Z,935.99
2023-03-11T02:45:39.499Z,936.09
2023-03-11T02:46:39.521Z,936.2
2023-03-11T02:47:39.454Z,936.25
2023-03-11T02:48:39.434Z,936.16
2023-03-11T02:49:39.413Z,936.24
2023-03-11T02:50:39.389Z,936.13
2023-03-11T02:51:39.377Z,936.15
2023-03-11T02:52:39.348Z,936.19
2023-03-11T02:53:39.373Z,936.24
2023-03-11T02:54:39.311Z,936.32
2023-03-11T02:55:39.286Z,936.31
2023-03-11T02:56:39.265Z,936.39
2023-03-11T02:57:39.251Z,936.34
2023-03-11T02:58:39.230Z,936.47
2023-03-11T02:59:39.204Z,936.34
2023-03-11T03:00:39.242Z,936.36
2023-03-11T03:01:39.160Z,936.31
2023-03-11T03:02:39.137Z,936.35
2023-03-11T03:03:39.122Z,936.38
2023-03-11T03:04:39.108Z,936.53
2023-03-11T03:05:39.090Z,936.41
2023-03-11T03:06:39.073Z,936.61
2023-03-11T03:07:39.035Z,936.49
2023-03-11T03:08:39.014Z,936.47
2023-03-11T03:09:39.048Z,936.55
2023-03-11T03:10:38.989Z,936.52
2023-03-11T03:11:38.949Z,936.52
2023-03-11T03:12:38.930Z,936.6
2023-03-11T03:13:38.906Z,936.6
2023-03-11T03:14:38.897Z,936.57
2023-03-11T03:15:39.828Z,936.63
2023-03-11T03:16:39.870Z,936.77
2023-03-11T03:17:39.882Z,936.62
2023-03-11T03:18:39.767Z,936.59
2023-03-11T03:19:39.748Z,936.69
2023-03-11T03:20:39.726Z,936.74
2023-03-11T03:21:39.704Z,936.66
2023-03-11T03:22:39.685Z,936.68
2023-03-11T03:23:39.666Z,936.69
2023-03-11T03:24:39.643Z,936.84
2023-03-11T03:25:39.647Z,936.8
2023-03-11T03:26:39.605Z,936.94
2023-03-11T03:27:39.580Z,936.88
2023-03-11T03:28:39.563Z,936.93
2023-03-11T03:29:39.538Z,936.89
2023-03-11T03:30:39.520Z,936.94
2023-03-11T03:31:39.505Z,936.9
2023-03-11T03:32:39.488Z,936.99
2023-03-11T03:33:39.455Z,936.95
2023-03-11T03:34:39.439Z,937.01
2023-03-11T03:35:39.444Z,936.92
2023-03-11T03:36:39.395Z,936.97
2023-03-11T03:37:39.373Z,937.04
2023-03-11T03:38:39.358Z,937.15
2023-03-11T03:39:39.334Z,937.12
2023-03-11T03:40:40.011Z,937.12
2023-03-11T03:41:39.980Z,937.08
2023-03-11T03:42:39.945Z,937.14
2023-03-11T03:43:39.918Z,937.19
2023-03-11T03:44:39.894Z,937.23
2023-03-11T03:45:40.047Z,937.27
2023-03-11T03:46:39.853Z,937.33
2023-03-11T03:47:39.832Z,937.35
2023-03-11T03:48:39.811Z,937.37
2023-03-11T03:49:39.794Z,937.44
2023-03-11T03:50:39.780Z,937.35
2023-03-11T03:51:39.752Z,937.26
2023-03-11T03:52:39.730Z,937.37
2023-03-11T03:53:39.712Z,937.32
2023-03-11T03:54:39.686Z,937.39
2023-03-11T03:55:39.666Z,937.4
2023-03-11T03:56:39.647Z,937.51
2023-03-11T03:57:39.654Z,937.49
2023-03-11T03:58:39.604Z,937.52
2023-03-11T03:59:39.600Z,937.48
2023-03-11T04:00:39.581Z,937.48
2023-03-11T04:01:39.546Z,937.56
2023-03-11T04:02:39.590Z,937.58
2023-03-11T04:03:39.618Z,937.57
2023-03-11T04:04:39.490Z,937.57
2023-03-11T04:05:39.467Z,937.62
2023-03-11T04:06:39.437Z,937.66
2023-03-11T04:07:39.435Z,937.67
2023-03-11T04:08:39.398Z,937.67
2023-03-11T04:09:39.389Z,937.68
2023-03-11T04:10:39.355Z,937.68
2023-03-11T04:11:39.335Z,937.67
2023-03-11T04:12:39.314Z,937.67
2023-03-11T04:13:39.327Z,937.71
2023-03-11T04:14:39.277Z,937.66
2023-03-11T04:15:39.254Z,937.84
2023-03-11T04:16:39.323Z,937.79
2023-03-11T04:17:39.214Z,937.83
2023-03-11T04:18:39.194Z,937.77
2023-03-11T04:19:39.175Z,937.81
2023-03-11T04:20:39.157Z,937.8
2023-03-11T04:21:39.128Z,937.8
2023-03-11T04:22:39.106Z,937.83
2023-03-11T04:23:39.087Z,937.86
2023-03-11T04:24:39.064Z,937.84
2023-03-11T04:25:39.045Z,937.85
2023-03-11T04:26:39.021Z,937.88
2023-03-11T04:27:39.003Z,937.94
2023-03-11T04:28:38.980Z,937.89
2023-03-11T04:46:05.090Z,938.14
2023-03-11T04:47:05.030Z,938.22
2023-03-11T04:48:05.009Z,938.14
2023-03-11T04:49:04.989Z,938.21
2023-03-11T04:50:04.959Z,938.33
2023-03-11T04:51:04.959Z,938.34
2023-03-11T04:52:04.923Z,938.3
2023-03-11T04:53:04.898Z,938.35
2023-03-11T04:54:04.877Z,938.35
2023-03-11T04:55:04.876Z,938.32
2023-03-11T04:56:04.844Z,938.36
2023-03-11T04:57:04.810Z,938.44
2023-03-11T04:58:04.788Z,938.38
2023-03-11T04:59:04.767Z,938.42
2023-03-11T05:00:04.746Z,938.53
2023-03-11T05:01:05.650Z,938.46
2023-03-11T05:02:05.612Z,938.42
2023-03-11T05:03:05.600Z,938.52
2023-03-11T05:04:05.550Z,938.55
2023-03-11T05:05:05.525Z,938.5
2023-03-11T05:06:05.507Z,938.5
2023-03-11T05:07:05.501Z,938.62
2023-03-11T05:08:05.463Z,938.54
2023-03-11T05:09:05.445Z,938.6
2023-03-11T05:10:05.426Z,938.59
2023-03-11T05:11:05.424Z,938.68
2023-03-11T05:12:05.380Z,938.63
2023-03-11T05:13:05.366Z,938.63
2023-03-11T05:14:05.340Z,938.73
2023-03-11T05:15:05.315Z,938.6
2023-03-11T05:16:05.354Z,938.66
2023-03-11T05:17:05.274Z,938.81
2023-03-11T05:18:05.289Z,938.81
2023-03-11T05:19:05.230Z,938.74
2023-03-11T05:20:05.209Z,938.86
2023-03-11T05:21:05.190Z,938.83
2023-03-11T05:22:05.208Z,938.81
2023-03-11T05:23:05.192Z,938.83
2023-03-11T05:24:05.168Z,938.84
2023-03-11T05:25:05.148Z,938.9
2023-03-11T05:26:05.122Z,938.88
2023-03-11T05:27:05.120Z,938.94
2023-03-11T05:28:05.082Z,938.98
2023-03-11T05:29:05.065Z,938.82
2023-03-11T05:30:05.037Z,938.92
2023-03-11T05:31:05.045Z,938.94
2023-03-11T05:32:04.995Z,938.95
2023-03-11T05:33:04.994Z,938.91
2023-03-11T05:34:04.980Z,939.04
2023-03-11T05:35:04.935Z,938.97
2023-03-11T05:36:04.984Z,939
2023-03-11T05:37:04.894Z,939.07
2023-03-11T05:38:04.893Z,939.01
2023-03-11T05:39:04.852Z,939.01
2023-03-11T05:40:04.835Z,939.09
2023-03-11T05:41:04.829Z,939.06
2023-03-11T05:42:04.791Z,939.09
2023-03-11T05:43:04.767Z,939.06
2023-03-11T05:44:04.748Z,939.12
2023-03-11T05:45:04.732Z,939.15
2023-03-11T05:46:04.788Z,939.22
2023-03-11T05:47:04.689Z,939.2
2023-03-11T05:48:04.666Z,939.07
2023-03-11T05:49:04.653Z,939.15
2023-03-11T05:50:04.653Z,939.19
2023-03-11T05:51:04.604Z,939.2
2023-03-11T05:52:04.590Z,939.17
2023-03-11T05:53:04.562Z,939.22
2023-03-11T05:54:04.540Z,939.23
2023-03-11T05:55:04.525Z,939.35
2023-03-11T05:56:04.496Z,939.36
2023-03-11T05:57:04.474Z,939.31
2023-03-11T05:58:04.506Z,939.36
2023-03-11T05:59:04.433Z,939.38
2023-03-11T06:00:04.408Z,939.42
2023-03-11T06:01:04.388Z,939.37
2023-03-11T06:02:04.376Z,939.45
2023-03-11T06:03:04.354Z,939.45
2023-03-11T06:04:04.472Z,939.5
2023-03-11T06:05:06.174Z,939.54
2023-03-11T06:06:04.313Z,939.54
2023-03-11T06:07:04.261Z,939.55
2023-03-11T06:08:04.246Z,939.49
2023-03-11T06:09:04.220Z,939.6
2023-03-11T06:10:04.197Z,939.58
2023-03-11T06:11:04.177Z,939.62
2023-03-11T06:12:04.161Z,939.65
2023-03-11T06:13:04.136Z,939.57
2023-03-11T06:14:04.115Z,939.63
2023-03-11T06:15:04.090Z,939.63
2023-03-11T06:16:04.092Z,939.64
2023-03-11T06:17:04.051Z,939.69
2023-03-11T06:18:04.029Z,939.68
2023-03-11T06:19:04.005Z,939.64
2023-03-11T06:20:03.986Z,939.72
2023-03-11T06:21:03.965Z,939.73
2023-03-11T06:22:03.974Z,939.7
2023-03-11T06:23:03.922Z,939.7
2023-03-11T06:24:03.909Z,939.82
2023-03-11T06:25:03.880Z,939.77
2023-03-11T06:26:03.862Z,939.81
2023-03-11T06:27:03.843Z,939.75
2023-03-11T06:28:03.818Z,939.82
2023-03-11T06:29:03.797Z,939.86
2023-03-11T06:30:03.779Z,939.8
2023-03-11T06:31:03.759Z,939.8
2023-03-11T06:32:03.732Z,939.85
2023-03-11T06:33:03.727Z,939.94
2023-03-11T06:34:03.691Z,939.91
2023-03-11T06:35:03.670Z,939.97
2023-03-11T06:36:03.697Z,940.02
2023-03-11T06:37:03.629Z,940.08
2023-03-11T06:38:03.632Z,940.06
2023-03-11T06:39:03.602Z,940.05
2023-03-11T06:40:03.574Z,940.1
2023-03-11T06:41:03.546Z,940.07
2023-03-11T06:42:03.521Z,940.12
2023-03-11T06:43:03.505Z,940.18
2023-03-11T06:44:03.482Z,940.19
2023-03-11T06:45:03.460Z,940.18
2023-03-11T06:46:03.585Z,940.2
2023-03-11T06:47:03.417Z,940.22
2023-03-11T06:48:03.396Z,940.29
2023-03-11T06:49:03.393Z,940.28
2023-03-11T06:50:03.353Z,940.29
2023-03-11T06:51:03.348Z,940.35
2023-03-11T06:52:03.319Z,940.38
2023-03-11T06:53:03.297Z,940.3
2023-03-11T06:54:03.292Z,940.32
2023-03-11T06:55:03.251Z,940.33
2023-03-11T06:56:03.249Z,940.39
2023-03-11T06:57:03.210Z,940.37
2023-03-11T06:58:03.186Z,940.43
2023-03-11T06:59:03.165Z,940.5
2023-03-11T07:00:03.147Z,940.52
2023-03-11T07:01:03.242Z,940.52
2023-03-11T07:02:03.252Z,940.46
2023-03-11T07:03:03.082Z,940.48
2023-03-11T07:04:03.093Z,940.47
2023-03-11T07:05:03.055Z,940.52
2023-03-11T07:06:04.989Z,940.5
2023-03-11T07:07:02.999Z,940.52
2023-03-11T07:08:02.979Z,940.55
2023-03-11T07:09:02.957Z,940.57
2023-03-11T07:10:02.968Z,940.58
2023-03-11T07:11:02.917Z,940.6
2023-03-11T07:12:03.559Z,940.67
2023-03-11T07:13:02.875Z,940.68
2023-03-11T07:14:02.865Z,940.62
2023-03-11T07:15:02.867Z,940.67
2023-03-11T07:16:02.820Z,940.68
2023-03-11T07:17:02.815Z,940.71
2023-03-11T07:18:02.772Z,940.67
2023-03-11T07:19:02.759Z,940.7
2023-03-11T07:20:02.736Z,940.78
2023-03-11T07:21:02.708Z,940.68
2023-03-11T07:22:02.701Z,940.83
2023-03-11T07:23:02.672Z,940.75
2023-03-11T07:24:02.654Z,940.77
2023-03-11T07:25:02.627Z,940.81
2023-03-11T07:26:02.639Z,940.81
2023-03-11T07:27:02.586Z,940.83
2023-03-11T07:28:02.580Z,940.74
2023-03-11T07:29:02.548Z,940.85
2023-03-11T07:30:02.536Z,940.9
2023-03-11T07:31:02.506Z,940.84
2023-03-11T07:32:02.560Z,940.89
2023-03-11T07:33:02.468Z,940.8
2023-03-11T07:34:02.443Z,940.84
2023-03-11T07:35:02.421Z,940.85
2023-03-11T07:36:02.416Z,940.89
2023-03-11T07:37:02.391Z,941
2023-03-11T07:38:02.366Z,940.96
2023-03-11T07:39:04.109Z,940.97
2023-03-11T07:40:02.326Z,940.95
2023-03-11T07:41:02.305Z,940.92
2023-03-11T07:42:02.302Z,941.03
2023-03-11T07:43:02.257Z,940.95
2023-03-11T07:44:02.275Z,941.01
2023-03-11T07:45:02.217Z,941
2023-03-11T07:46:02.327Z,941.06
2023-03-11T07:47:02.183Z,941.07
2023-03-11T07:48:02.155Z,941.08
2023-03-11T07:49:02.136Z,941.12
2023-03-11T07:50:02.146Z,941.08
2023-03-11T07:51:02.095Z,941.15
2023-03-11T07:52:02.108Z,941.2
2023-03-11T07:53:02.064Z,941.15
2023-03-11T07:54:02.039Z,941.18
2023-03-11T07:55:02.010Z,941.22
2023-03-11T07:56:01.993Z,941.26
2023-03-11T07:57:01.968Z,941.36
2023-03-11T07:58:01.977Z,941.27
2023-03-11T07:59:01.931Z,941.34
2023-03-11T08:00:01.920Z,941.34
2023-03-11T08:01:01.893Z,941.33
2023-03-11T08:02:01.909Z,941.36
2023-03-11T08:03:01.846Z,941.37
2023-03-11T08:04:01.891Z,941.37
2023-03-11T08:05:01.806Z,941.39
2023-03-11T08:06:01.787Z,941.43
2023-03-11T08:07:01.765Z,941.42
2023-03-11T08:08:01.746Z,941.48
2023-03-11T08:09:01.738Z,941.51
2023-03-11T08:10:01.761Z,941.48
2023-03-11T08:11:01.686Z,941.49
2023-03-11T08:12:01.663Z,941.57
2023-03-11T08:13:01.646Z,941.48
2023-03-11T08:14:01.655Z,941.54
2023-03-11T08:15:01.617Z,941.6
2023-03-11T08:16:01.661Z,941.57
2023-03-11T08:17:01.562Z,941.54
2023-03-11T08:18:01.576Z,941.58
2023-03-11T08:19:01.533Z,941.61
2023-03-11T08:20:01.500Z,941.58
2023-03-11T08:21:01.481Z,941.59
2023-03-11T08:22:01.465Z,941.59
2023-03-11T08:23:01.441Z,941.62
2023-03-11T08:24:01.436Z,941.64
2023-03-11T08:25:01.401Z,941.67
2023-03-11T08:26:01.375Z,941.64
2023-03-11T08:27:01.359Z,941.71
2023-03-11T08:28:01.336Z,941.68
2023-03-11T08:29:01.336Z,941.77
2023-03-11T08:30:01.370Z,941.75
2023-03-11T08:31:01.320Z,941.77
2023-03-11T08:32:01.259Z,941.75
2023-03-11T08:33:01.236Z,941.8
2023-03-11T08:34:01.212Z,941.86
2023-03-11T08:35:01.195Z,941.84
2023-03-11T08:36:01.196Z,941.84
2023-03-11T08:37:01.153Z,941.89
2023-03-11T08:38:01.137Z,941.87
2023-03-11T08:39:01.230Z,941.89
2023-03-11T08:40:01.101Z,941.93
2023-03-11T08:41:01.072Z,941.92
2023-03-11T08:42:01.054Z,941.98
2023-03-11T08:43:01.035Z,942
2023-03-11T08:44:01.010Z,942.02
2023-03-11T08:45:00.990Z,942.01
2023-03-11T08:46:01.083Z,942.11
2023-03-11T08:47:00.953Z,942.1
2023-03-11T08:48:00.931Z,942.14
2023-03-11T08:49:01.537Z,942.07
2023-03-11T08:50:00.887Z,942.12
2023-03-11T08:51:00.871Z,942.11
2023-03-11T08:52:00.847Z,942.17
2023-03-11T08:53:00.827Z,942.19
2023-03-11T08:54:00.832Z,942.12
2023-03-11T08:55:00.793Z,942.18
2023-03-11T08:56:00.768Z,942.24
2023-03-11T08:57:00.747Z,942.2
2023-03-11T08:58:00.743Z,942.2
2023-03-11T08:59:00.706Z,942.26
2023-03-11T09:00:00.688Z,942.3
2023-03-11T09:01:00.668Z,942.36
2023-03-11T09:02:00.670Z,942.37
2023-03-11T09:03:00.746Z,942.38
2023-03-11T09:04:00.613Z,942.39
2023-03-11T09:05:00.584Z,942.41
2023-03-11T09:06:00.716Z,942.42
2023-03-11T09:07:00.545Z,942.46
2023-03-11T09:08:00.590Z,942.5
2023-03-11T09:09:00.506Z,942.53
2023-03-11T09:10:00.492Z,942.46
2023-03-11T09:11:00.465Z,942.51
2023-03-11T09:12:00.454Z,942.58
2023-03-11T09:13:00.428Z,942.53
2023-03-11T09:14:00.407Z,942.56
2023-03-11T09:15:00.396Z,942.62
2023-03-11T09:16:00.463Z,942.55
2023-03-11T09:17:00.349Z,942.57
2023-03-11T09:18:00.360Z,942.61
2023-03-11T09:19:00.365Z,942.57
2023-03-11T09:20:00.289Z,942.62
2023-03-11T09:21:00.275Z,942.57
2023-03-11T09:22:00.253Z,942.6
2023-03-11T09:23:00.230Z,942.66
2023-03-11T09:24:00.217Z,942.6
2023-03-11T09:25:00.191Z,942.73
2023-03-11T09:26:00.174Z,942.71
2023-03-11T09:27:00.156Z,942.72
2023-03-11T09:28:00.169Z,942.65
2023-03-11T09:29:00.118Z,942.77
2023-03-11T09:30:00.107Z,942.74
2023-03-11T09:31:00.101Z,942.76
2023-03-11T09:32:00.056Z,942.76
2023-03-11T09:33:00.033Z,942.77
2023-03-11T09:34:00.044Z,942.72
2023-03-11T09:34:59.994Z,942.84
2023-03-11T09:35:59.997Z,942.83
2023-03-11T09:36:59.955Z,942.89
2023-03-11T09:37:59.939Z,942.93
2023-03-11T09:38:59.919Z,942.93
2023-03-11T09:39:59.896Z,942.93
2023-03-11T09:40:59.878Z,942.94
2023-03-11T09:42:00.714Z,942.99
2023-03-11T09:43:00.692Z,943.04
2023-03-11T09:44:00.677Z,943.04
2023-03-11T09:45:00.653Z,943
2023-03-11T09:46:00.634Z,943.04
2023-03-11T09:47:00.702Z,943.05
2023-03-11T09:48:00.596Z,943.06
2023-03-11T09:49:00.587Z,943.05
2023-03-11T09:50:00.601Z,943.07
2023-03-11T09:51:00.535Z,943.1
2023-03-11T09:52:00.519Z,943.09
2023-03-11T09:53:00.511Z,943.09
2023-03-11T09:54:00.477Z,943.08
2023-03-11T09:55:00.456Z,943.15
2023-03-11T09:56:00.445Z,943.12
2023-03-11T09:57:00.420Z,943.18
2023-03-11T09:58:00.398Z,943.15
2023-03-11T09:59:00.379Z,943.12
2023-03-11T10:00:00.359Z,943.14
2023-03-11T10:01:00.341Z,943.13
2023-03-11T10:02:00.388Z,943.18
2023-03-11T10:03:00.345Z,943.2
2023-03-11T10:04:00.280Z,943.22
2023-03-11T10:05:00.262Z,943.23
2023-03-11T10:06:00.270Z,943.22
2023-03-11T10:07:00.223Z,943.27
2023-03-11T10:08:00.202Z,943.23
2023-03-11T10:09:00.187Z,943.22
2023-03-11T10:10:00.166Z,943.27
2023-03-11T10:11:00.146Z,943.26
2023-03-11T10:12:00.123Z,943.3
2023-03-11T10:13:00.142Z,943.3
2023-03-11T10:14:00.109Z,943.27
2023-03-11T10:15:00.095Z,943.31
2023-03-11T10:16:00.193Z,943.29
2023-03-11T10:17:00.030Z,943.38
2023-03-11T10:18:00.008Z,943.34
2023-03-11T10:18:59.990Z,943.32
2023-03-11T10:19:59.973Z,943.26
2023-03-11T10:20:59.958Z,943.35
2023-03-11T10:21:59.958Z,943.36
2023-03-11T10:22:59.920Z,943.38
2023-03-11T10:23:59.891Z,943.39
2023-03-11T10:24:59.873Z,943.37
2023-03-11T10:25:59.880Z,943.43
2023-03-11T10:26:59.835Z,943.46
2023-03-11T10:27:59.817Z,943.46
2023-03-11T10:28:59.796Z,943.4
2023-03-11T10:29:59.774Z,943.48
2023-03-11T10:30:59.755Z,943.51
2023-03-11T10:31:59.762Z,943.48
2023-03-11T10:32:59.727Z,943.56
2023-03-11T10:33:59.696Z,943.59
2023-03-11T10:34:59.696Z,943.57
2023-03-11T10:35:59.670Z,943.5
2023-03-11T10:36:59.642Z,943.53
2023-03-11T10:37:59.643Z,943.53
2023-03-11T10:38:59.602Z,943.52
2023-03-11T10:39:59.578Z,943.56
2023-03-11T10:40:59.560Z,943.57
2023-03-11T10:41:59.539Z,943.59
2023-03-11T10:42:59.519Z,943.58
2023-03-11T10:43:59.502Z,943.53
2023-03-11T10:44:59.478Z,943.63
2023-03-11T10:45:59.535Z,943.58
2023-03-11T10:46:59.451Z,943.62
2023-03-11T10:47:59.420Z,943.54
2023-03-11T10:48:59.404Z,943.56
2023-03-11T10:49:59.383Z,943.54
2023-03-11T10:50:59.364Z,943.56
2023-03-11T10:51:59.368Z,943.56
2023-03-11T10:52:59.334Z,943.56
2023-03-11T10:53:59.391Z,943.56
2023-03-11T10:54:59.286Z,943.58
2023-03-11T10:55:59.269Z,943.6
2023-03-11T10:56:59.248Z,943.54
2023-03-11T10:57:59.231Z,943.58
2023-03-11T10:58:59.210Z,943.53
2023-03-11T10:59:59.218Z,943.59
2023-03-11T11:00:59.220Z,943.57
2023-03-11T11:01:59.159Z,943.55
2023-03-11T11:02:59.136Z,943.59
2023-03-11T11:03:59.133Z,943.57
2023-03-11T11:04:59.100Z,943.58
2023-03-11T11:05:59.094Z,943.58
2023-03-11T11:06:59.068Z,943.65
2023-03-11T11:07:59.046Z,943.69
2023-03-11T11:08:59.028Z,943.61
2023-03-11T11:09:59.037Z,943.68
2023-03-11T11:10:58.990Z,943.66
2023-03-11T11:11:58.970Z,943.73
2023-03-11T11:12:58.954Z,943.75
2023-03-11T11:13:58.933Z,943.73
2023-03-11T11:14:58.912Z,943.76
2023-03-11T11:15:58.894Z,943.77
2023-03-11T11:16:58.915Z,943.77
2023-03-11T11:17:58.867Z,943.75
2023-03-11T11:18:58.841Z,943.76
2023-03-11T11:19:58.817Z,943.82
2023-03-11T11:20:58.796Z,943.86
2023-03-11T11:21:58.781Z,943.83
2023-03-11T11:22:58.773Z,943.84
2023-03-11T11:23:58.749Z,943.83
2023-03-11T11:24:58.742Z,943.86
2023-03-11T11:25:58.736Z,943.84
2023-03-11T11:26:58.681Z,943.81
2023-03-11T11:27:59.089Z,943.83
2023-03-11T11:28:59.075Z,943.88
2023-03-11T11:29:59.054Z,943.86
2023-03-11T11:30:59.068Z,943.84
2023-03-11T11:31:59.015Z,943.87
2023-03-11T11:32:59.051Z,943.87
2023-03-11T11:33:58.979Z,943.89
2023-03-11T11:34:58.957Z,943.92
2023-03-11T11:35:58.937Z,943.91
2023-03-11T11:36:58.917Z,943.91
2023-03-11T11:37:58.896Z,943.94
2023-03-11T11:38:58.880Z,943.99
2023-03-11T11:39:58.856Z,943.96
2023-03-11T11:40:58.848Z,943.93
2023-03-11T11:41:58.854Z,943.93
2023-03-11T11:42:58.800Z,943.93
2023-03-11T11:43:58.776Z,943.98
2023-03-11T11:44:58.764Z,943.94
2023-03-11T11:45:58.801Z,943.91
2023-03-11T11:46:58.718Z,943.9
2023-03-11T11:47:58.699Z,943.89
2023-03-11T11:48:58.680Z,943.91
2023-03-11T11:49:58.658Z,943.92
2023-03-11T11:50:58.643Z,943.9
2023-03-11T11:51:58.619Z,943.92
2023-03-11T11:52:58.622Z,943.9
2023-03-11T11:53:58.581Z,943.95
2023-03-11T11:54:58.567Z,944
2023-03-11T11:55:58.544Z,943.96
2023-03-11T11:56:58.553Z,943.93
2023-03-11T11:57:58.540Z,944.01
2023-03-11T11:58:58.483Z,944.05
2023-03-11T11:59:58.460Z,944.04
2023-03-11T12:00:58.441Z,944.09
2023-03-11T12:01:58.482Z,944.08
2023-03-11T12:02:58.413Z,944.11
2023-03-11T12:03:58.643Z,944.07
2023-03-11T12:04:58.364Z,944.04
2023-03-11T12:05:58.519Z,944.08
2023-03-11T12:06:58.331Z,944.04
2023-03-11T12:07:58.309Z,944.03
2023-03-11T12:08:58.289Z,944.06
2023-03-11T12:09:58.267Z,943.97
2023-03-11T12:10:58.253Z,944.01
2023-03-11T12:11:58.226Z,944.01
2023-03-11T12:12:58.216Z,944.06
2023-03-11T12:13:58.214Z,944.05
2023-03-11T12:14:58.170Z,944.04
2023-03-11T12:15:58.181Z,944.02
2023-03-11T12:16:58.133Z,944.1
2023-03-11T12:17:58.109Z,944.06
2023-03-11T12:18:58.105Z,944.05
2023-03-11T12:19:58.082Z,944.09
2023-03-11T12:20:58.052Z,944.13
2023-03-11T12:21:58.032Z,944.1
2023-03-11T12:22:58.023Z,944.12
2023-03-11T12:23:57.991Z,944.07
2023-03-11T12:24:57.978Z,944.05
2023-03-11T12:25:57.955Z,944.07
2023-03-11T12:26:57.932Z,944.14
2023-03-11T12:27:57.915Z,944.12
2023-03-11T12:28:57.893Z,944.13
2023-03-11T12:29:57.904Z,944.12
2023-03-11T12:30:57.904Z,944.17
2023-03-11T12:31:57.835Z,944.18
2023-03-11T12:32:57.823Z,944.19
2023-03-11T12:33:57.802Z,944.24
2023-03-11T12:34:57.779Z,944.21
2023-03-11T12:35:57.765Z,944.32
2023-03-11T12:36:57.735Z,944.27
2023-03-11T12:37:57.721Z,944.24
2023-03-11T12:38:57.699Z,944.3
2023-03-11T12:39:57.679Z,944.33
2023-03-11T12:40:57.668Z,944.31
2023-03-11T12:41:57.639Z,944.35
2023-03-11T12:42:57.619Z,944.36
2023-03-11T12:43:57.599Z,944.31
2023-03-11T12:44:57.576Z,944.4
2023-03-11T12:45:57.599Z,944.35
2023-03-11T12:46:57.579Z,944.37
2023-03-11T12:47:57.523Z,944.33